• Join FlightAware (Why Join?)
  • Login
  • US Flag 
02:11PM EST


 

Airport Tracker/Info


-or-


 

Live Flight TrackerFlight Track Log ✈ ABX904 ✈ 11-Mar-2014 ✈ KBFI - CYVR

Flight Track Log - Related Links

Times and Time Zones

All times are in EDT time to prevent confusion due to time zone crossing. See the ABX904 flight status page for this flight to view local times or setup timezone preferences in your user account.

Time Position Orientation Groundspeed Altitude Reporting Facility
EDT Latitude Longitude Course Direction KTS MPH feet Rate Location/Type
11:16AM 47.5144 -122.2897 154° Southeast 146 168 900  Level Seattle Center
11:17AM 47.4703 -122.2581 154° Southeast 177 204 3,100 2,160 Climbing Seattle Center
11:18AM 47.4653 -122.1814 95° East 237 273 5,400 2,700 Climbing Seattle Center
11:19AM 47.5269 -122.1808 360° North 264 304 8,300 3,420 Climbing Seattle Center
11:19AM 47.5381 -122.1836 350° North 252 290 8,900 2,520 Climbing Seattle Center
11:20AM 47.6128 -122.2017 351° North 277 319 11,200 1,500 Climbing Seattle Center
11:21AM 47.7011 -122.2242 350° North 326 375 12,000 360 Climbing Seattle Center
11:22AM 47.7875 -122.2447 351° North 321 369 12,000  Level Seattle Center
11:23AM 47.8767 -122.2664 351° North 319 367 12,000  Level Seattle Center
11:24AM 47.9633 -122.2903 350° North 319 367 12,000  Level Seattle Center
11:25AM 48.0494 -122.3156 349° North 317 365 12,000  Level Seattle Center
11:26AM 48.1361 -122.3400 349° North 317 365 12,000  Level Seattle Center
11:27AM 48.2231 -122.3656 349° North 320 368 12,000  Level Seattle Center
11:28AM 48.3097 -122.3914 349° North 319 367 12,000  Level Seattle Center
11:29AM 48.3969 -122.4158 349° North 320 368 12,000  Level Seattle Center
11:30AM 48.5000 -122.4478 348° North 316 364 12,000  Level Seattle Center
11:31AM 48.5881 -122.4719 350° North 318 366 12,000  Level Seattle Center
11:32AM 48.6758 -122.4969 349° North 322 371 12,000  Level Seattle Center
11:33AM 48.7469 -122.5711 325° Northwest 319 367 12,000  Level Seattle Center
11:34AM 48.8000 -122.6833 306° West 320 368 12,000  Level Vancouver Center
11:35AM 48.8667 -122.7833 315° West 320 368 12,000 -720 Level Vancouver Center
11:36AM 48.9167 -122.8833 307° West 310 357 10,600 -900 Descending Vancouver Center
11:37AM 48.9667 -122.9833 307° West 300 345 10,300 -300 Descending Vancouver Center
11:38AM 49.0167 -123.0833 307° West 290 334 10,000 -1,200 Descending Vancouver Center
11:39AM 49.0667 -123.1667 312° West 270 311 8,000 -1,800 Descending Vancouver Center
11:40AM 49.0833 -123.2833 282° West 250 288 6,500 -1,260 Descending Vancouver Center
11:41AM 49.1000 -123.3667 287° West 240 276 5,500 -1,200 Descending Vancouver Center
11:42AM 49.1167 -123.4667 284° West 240 276 4,100 -1,020 Descending Vancouver Center
11:43AM 49.1667 -123.4667 360° North 220 253 3,500 -900 Descending Vancouver Center
11:44AM 49.1833 -123.3833 73° East 200 230 2,400 -1,080 Descending Vancouver Center
11:45AM 49.1833 -123.3167 90° East 180 207 1,400 -900 Descending Vancouver Center
11:46AM 49.1667 -123.2667 117° Southeast 130 150 700 -660 Descending Vancouver Center
11:47AM 49.1667 -123.2167 90° East 110 127 100 -600 Descending Vancouver Center